sensor_id;sensor_type;location;lat;lon;timestamp;P1;durP1;ratioP1;P2;durP2;ratioP2
8219;SDS011;4151;51.110;7.020;2023-05-03T00:00:34;8.90;;;3.57;;
8219;SDS011;4151;51.110;7.020;2023-05-03T00:02:59;10.13;;;4.93;;
8219;SDS011;4151;51.110;7.020;2023-05-03T00:05:28;9.93;;;4.20;;
8219;SDS011;4151;51.110;7.020;2023-05-03T00:07:54;7.03;;;4.17;;
8219;SDS011;4151;51.110;7.020;2023-05-03T00:10:20;24.17;;;3.83;;
8219;SDS011;4151;51.110;7.020;2023-05-03T00:12:46;9.43;;;4.17;;
8219;SDS011;4151;51.110;7.020;2023-05-03T00:15:12;19.17;;;3.97;;
8219;SDS011;4151;51.110;7.020;2023-05-03T00:17:37;9.70;;;4.80;;
8219;SDS011;4151;51.110;7.020;2023-05-03T00:20:03;8.80;;;3.63;;
8219;SDS011;4151;51.110;7.020;2023-05-03T00:22:30;7.20;;;3.77;;
8219;SDS011;4151;51.110;7.020;2023-05-03T00:24:57;6.77;;;3.60;;
8219;SDS011;4151;51.110;7.020;2023-05-03T00:27:23;9.30;;;3.53;;
8219;SDS011;4151;51.110;7.020;2023-05-03T00:29:49;8.07;;;3.97;;
8219;SDS011;4151;51.110;7.020;2023-05-03T00:32:15;6.30;;;3.37;;
8219;SDS011;4151;51.110;7.020;2023-05-03T00:34:41;5.77;;;3.70;;
8219;SDS011;4151;51.110;7.020;2023-05-03T00:37:06;6.77;;;3.77;;
8219;SDS011;4151;51.110;7.020;2023-05-03T00:39:33;9.60;;;4.43;;
8219;SDS011;4151;51.110;7.020;2023-05-03T00:41:59;7.27;;;3.50;;
8219;SDS011;4151;51.110;7.020;2023-05-03T00:44:26;10.97;;;4.30;;
8219;SDS011;4151;51.110;7.020;2023-05-03T00:46:51;11.93;;;3.57;;
8219;SDS011;4151;51.110;7.020;2023-05-03T00:49:19;7.87;;;3.57;;
8219;SDS011;4151;51.110;7.020;2023-05-03T00:51:45;15.00;;;4.47;;
8219;SDS011;4151;51.110;7.020;2023-05-03T00:54:10;7.17;;;3.80;;
8219;SDS011;4151;51.110;7.020;2023-05-03T00:56:36;6.37;;;3.60;;
8219;SDS011;4151;51.110;7.020;2023-05-03T00:59:04;9.50;;;3.73;;
8219;SDS011;4151;51.110;7.020;2023-05-03T01:01:30;9.90;;;3.13;;
8219;SDS011;4151;51.110;7.020;2023-05-03T01:03:56;12.70;;;4.20;;
8219;SDS011;4151;51.110;7.020;2023-05-03T01:11:50;8.40;;;4.03;;
8219;SDS011;4151;51.110;7.020;2023-05-03T01:14:27;7.37;;;3.83;;
8219;SDS011;4151;51.110;7.020;2023-05-03T01:17:15;5.50;;;3.10;;
8219;SDS011;4151;51.110;7.020;2023-05-03T01:19:48;5.73;;;3.97;;
8219;SDS011;4151;51.110;7.020;2023-05-03T01:22:38;10.10;;;3.60;;
8219;SDS011;4151;51.110;7.020;2023-05-03T01:25:13;4.80;;;3.53;;
8219;SDS011;4151;51.110;7.020;2023-05-03T01:27:39;9.50;;;4.03;;
8219;SDS011;4151;51.110;7.020;2023-05-03T01:30:09;7.20;;;3.43;;
8219;SDS011;4151;51.110;7.020;2023-05-03T01:32:44;8.30;;;3.40;;
8219;SDS011;4151;51.110;7.020;2023-05-03T01:35:39;5.60;;;3.70;;
8219;SDS011;4151;51.110;7.020;2023-05-03T01:38:11;11.50;;;3.57;;
8219;SDS011;4151;51.110;7.020;2023-05-03T01:40:40;7.53;;;3.70;;
8219;SDS011;4151;51.110;7.020;2023-05-03T01:43:10;9.07;;;4.67;;
8219;SDS011;4151;51.110;7.020;2023-05-03T01:45:37;7.80;;;4.57;;
8219;SDS011;4151;51.110;7.020;2023-05-03T01:48:07;11.57;;;4.40;;
8219;SDS011;4151;51.110;7.020;2023-05-03T01:50:38;12.03;;;4.03;;
8219;SDS011;4151;51.110;7.020;2023-05-03T01:53:04;8.93;;;4.40;;
8219;SDS011;4151;51.110;7.020;2023-05-03T01:55:29;9.43;;;4.57;;
8219;SDS011;4151;51.110;7.020;2023-05-03T01:57:55;9.77;;;4.73;;
8219;SDS011;4151;51.110;7.020;2023-05-03T02:00:20;6.27;;;4.20;;
8219;SDS011;4151;51.110;7.020;2023-05-03T02:02:46;7.43;;;4.30;;
8219;SDS011;4151;51.110;7.020;2023-05-03T02:05:12;10.07;;;4.97;;
8219;SDS011;4151;51.110;7.020;2023-05-03T02:07:37;9.57;;;3.63;;
8219;SDS011;4151;51.110;7.020;2023-05-03T02:10:04;8.53;;;4.37;;
8219;SDS011;4151;51.110;7.020;2023-05-03T02:12:30;9.23;;;4.20;;
8219;SDS011;4151;51.110;7.020;2023-05-03T02:14:55;14.53;;;4.83;;
8219;SDS011;4151;51.110;7.020;2023-05-03T02:17:21;8.40;;;4.70;;
8219;SDS011;4151;51.110;7.020;2023-05-03T02:19:50;6.60;;;3.60;;
8219;SDS011;4151;51.110;7.020;2023-05-03T02:22:18;8.20;;;4.30;;
8219;SDS011;4151;51.110;7.020;2023-05-03T02:24:44;9.50;;;4.47;;
8219;SDS011;4151;51.110;7.020;2023-05-03T02:27:10;10.90;;;4.60;;
8219;SDS011;4151;51.110;7.020;2023-05-03T02:29:35;10.43;;;4.30;;
8219;SDS011;4151;51.110;7.020;2023-05-03T02:32:01;10.03;;;4.30;;
8219;SDS011;4151;51.110;7.020;2023-05-03T02:34:29;8.00;;;3.47;;
8219;SDS011;4151;51.110;7.020;2023-05-03T02:36:55;10.43;;;5.07;;
8219;SDS011;4151;51.110;7.020;2023-05-03T02:39:21;22.23;;;4.80;;
8219;SDS011;4151;51.110;7.020;2023-05-03T02:41:46;10.97;;;5.20;;
8219;SDS011;4151;51.110;7.020;2023-05-03T02:44:12;12.50;;;4.47;;
8219;SDS011;4151;51.110;7.020;2023-05-03T02:46:38;9.17;;;4.50;;
8219;SDS011;4151;51.110;7.020;2023-05-03T02:49:04;13.33;;;4.33;;
8219;SDS011;4151;51.110;7.020;2023-05-03T02:51:30;5.77;;;4.23;;
8219;SDS011;4151;51.110;7.020;2023-05-03T02:53:56;10.33;;;4.07;;
8219;SDS011;4151;51.110;7.020;2023-05-03T02:56:21;10.60;;;4.70;;
8219;SDS011;4151;51.110;7.020;2023-05-03T02:58:50;9.33;;;4.10;;
8219;SDS011;4151;51.110;7.020;2023-05-03T03:01:16;8.60;;;4.10;;
8219;SDS011;4151;51.110;7.020;2023-05-03T03:03:42;6.30;;;3.80;;
8219;SDS011;4151;51.110;7.020;2023-05-03T03:06:07;9.90;;;4.20;;
8219;SDS011;4151;51.110;7.020;2023-05-03T03:08:34;5.67;;;3.57;;
8219;SDS011;4151;51.110;7.020;2023-05-03T03:11:00;7.57;;;3.90;;
8219;SDS011;4151;51.110;7.020;2023-05-03T03:13:26;15.23;;;5.33;;
8219;SDS011;4151;51.110;7.020;2023-05-03T03:15:51;11.97;;;5.20;;
8219;SDS011;4151;51.110;7.020;2023-05-03T03:18:17;7.23;;;3.50;;
8219;SDS011;4151;51.110;7.020;2023-05-03T03:20:42;7.97;;;4.17;;
8219;SDS011;4151;51.110;7.020;2023-05-03T03:23:08;8.27;;;4.53;;
8219;SDS011;4151;51.110;7.020;2023-05-03T03:25:33;8.20;;;4.17;;
8219;SDS011;4151;51.110;7.020;2023-05-03T03:27:59;11.10;;;4.27;;
8219;SDS011;4151;51.110;7.020;2023-05-03T03:30:25;6.70;;;3.50;;
8219;SDS011;4151;51.110;7.020;2023-05-03T03:32:51;10.97;;;3.83;;
8219;SDS011;4151;51.110;7.020;2023-05-03T03:35:16;13.93;;;3.90;;
8219;SDS011;4151;51.110;7.020;2023-05-03T03:37:43;7.50;;;4.10;;
8219;SDS011;4151;51.110;7.020;2023-05-03T03:40:08;5.70;;;3.93;;
8219;SDS011;4151;51.110;7.020;2023-05-03T03:42:35;12.87;;;3.90;;
8219;SDS011;4151;51.110;7.020;2023-05-03T03:45:01;13.87;;;7.57;;
8219;SDS011;4151;51.110;7.020;2023-05-03T03:47:27;10.07;;;4.33;;
8219;SDS011;4151;51.110;7.020;2023-05-03T03:49:52;13.63;;;6.23;;
8219;SDS011;4151;51.110;7.020;2023-05-03T03:52:17;8.60;;;3.87;;
8219;SDS011;4151;51.110;7.020;2023-05-03T03:54:43;11.00;;;4.27;;
8219;SDS011;4151;51.110;7.020;2023-05-03T03:57:09;9.40;;;4.63;;
8219;SDS011;4151;51.110;7.020;2023-05-03T03:59:34;11.37;;;4.60;;
8219;SDS011;4151;51.110;7.020;2023-05-03T04:02:00;6.60;;;3.80;;
8219;SDS011;4151;51.110;7.020;2023-05-03T04:04:25;6.83;;;4.13;;
8219;SDS011;4151;51.110;7.020;2023-05-03T04:06:51;6.40;;;4.63;;
8219;SDS011;4151;51.110;7.020;2023-05-03T04:09:16;6.90;;;4.20;;
8219;SDS011;4151;51.110;7.020;2023-05-03T04:11:42;12.13;;;3.73;;
8219;SDS011;4151;51.110;7.020;2023-05-03T04:14:08;9.97;;;3.83;;
8219;SDS011;4151;51.110;7.020;2023-05-03T04:16:34;10.27;;;4.30;;
8219;SDS011;4151;51.110;7.020;2023-05-03T04:18:59;8.13;;;3.70;;
8219;SDS011;4151;51.110;7.020;2023-05-03T04:21:25;7.07;;;3.67;;
8219;SDS011;4151;51.110;7.020;2023-05-03T04:23:52;9.53;;;4.00;;
8219;SDS011;4151;51.110;7.020;2023-05-03T04:26:18;8.53;;;4.00;;
8219;SDS011;4151;51.110;7.020;2023-05-03T04:28:46;8.63;;;3.00;;
8219;SDS011;4151;51.110;7.020;2023-05-03T04:31:11;12.43;;;4.23;;
8219;SDS011;4151;51.110;7.020;2023-05-03T04:33:38;18.60;;;4.70;;
8219;SDS011;4151;51.110;7.020;2023-05-03T04:36:04;6.53;;;3.80;;
8219;SDS011;4151;51.110;7.020;2023-05-03T04:38:30;6.70;;;3.80;;
8219;SDS011;4151;51.110;7.020;2023-05-03T04:40:56;12.33;;;4.13;;
8219;SDS011;4151;51.110;7.020;2023-05-03T04:49:37;9.70;;;4.00;;
8219;SDS011;4151;51.110;7.020;2023-05-03T04:52:03;15.00;;;4.60;;
8219;SDS011;4151;51.110;7.020;2023-05-03T04:54:29;12.27;;;4.30;;
8219;SDS011;4151;51.110;7.020;2023-05-03T04:56:55;9.60;;;4.07;;
8219;SDS011;4151;51.110;7.020;2023-05-03T04:59:21;7.70;;;4.60;;
8219;SDS011;4151;51.110;7.020;2023-05-03T05:01:46;11.87;;;4.23;;
8219;SDS011;4151;51.110;7.020;2023-05-03T05:04:12;9.63;;;3.97;;
8219;SDS011;4151;51.110;7.020;2023-05-03T05:06:38;8.00;;;4.63;;
8219;SDS011;4151;51.110;7.020;2023-05-03T05:09:05;9.13;;;4.63;;
8219;SDS011;4151;51.110;7.020;2023-05-03T05:11:31;6.70;;;4.83;;
8219;SDS011;4151;51.110;7.020;2023-05-03T05:13:57;13.83;;;4.63;;
8219;SDS011;4151;51.110;7.020;2023-05-03T05:16:23;10.60;;;4.87;;
8219;SDS011;4151;51.110;7.020;2023-05-03T05:18:48;5.70;;;4.37;;
8219;SDS011;4151;51.110;7.020;2023-05-03T05:21:14;8.83;;;4.10;;
8219;SDS011;4151;51.110;7.020;2023-05-03T05:23:40;8.33;;;4.80;;
8219;SDS011;4151;51.110;7.020;2023-05-03T05:26:05;6.57;;;4.10;;
8219;SDS011;4151;51.110;7.020;2023-05-03T05:28:31;13.03;;;4.83;;
8219;SDS011;4151;51.110;7.020;2023-05-03T05:30:56;9.77;;;4.53;;
8219;SDS011;4151;51.110;7.020;2023-05-03T05:33:22;10.93;;;5.60;;
8219;SDS011;4151;51.110;7.020;2023-05-03T05:35:48;10.03;;;5.00;;
8219;SDS011;4151;51.110;7.020;2023-05-03T05:38:14;9.10;;;4.30;;
8219;SDS011;4151;51.110;7.020;2023-05-03T05:40:41;11.30;;;4.93;;
8219;SDS011;4151;51.110;7.020;2023-05-03T05:43:07;7.80;;;4.90;;
8219;SDS011;4151;51.110;7.020;2023-05-03T05:45:33;11.47;;;5.67;;
8219;SDS011;4151;51.110;7.020;2023-05-03T05:47:59;9.97;;;5.07;;
8219;SDS011;4151;51.110;7.020;2023-05-03T05:50:24;11.10;;;5.00;;
8219;SDS011;4151;51.110;7.020;2023-05-03T05:52:50;8.37;;;4.43;;
8219;SDS011;4151;51.110;7.020;2023-05-03T05:55:17;8.90;;;4.40;;
8219;SDS011;4151;51.110;7.020;2023-05-03T05:57:42;10.37;;;4.83;;
8219;SDS011;4151;51.110;7.020;2023-05-03T06:00:08;8.53;;;4.77;;
8219;SDS011;4151;51.110;7.020;2023-05-03T06:02:38;9.70;;;4.93;;
8219;SDS011;4151;51.110;7.020;2023-05-03T06:05:05;9.23;;;5.00;;
8219;SDS011;4151;51.110;7.020;2023-05-03T06:07:31;8.13;;;4.10;;
8219;SDS011;4151;51.110;7.020;2023-05-03T06:09:56;8.10;;;4.50;;
8219;SDS011;4151;51.110;7.020;2023-05-03T06:12:22;5.67;;;4.00;;
8219;SDS011;4151;51.110;7.020;2023-05-03T06:14:47;9.83;;;5.13;;
8219;SDS011;4151;51.110;7.020;2023-05-03T06:17:13;9.77;;;4.67;;
8219;SDS011;4151;51.110;7.020;2023-05-03T06:19:39;14.10;;;5.10;;
8219;SDS011;4151;51.110;7.020;2023-05-03T06:22:04;7.27;;;4.50;;
8219;SDS011;4151;51.110;7.020;2023-05-03T06:24:30;7.43;;;4.60;;
8219;SDS011;4151;51.110;7.020;2023-05-03T06:26:57;12.07;;;4.70;;
8219;SDS011;4151;51.110;7.020;2023-05-03T06:29:22;9.70;;;4.87;;
8219;SDS011;4151;51.110;7.020;2023-05-03T06:31:48;9.93;;;4.60;;
8219;SDS011;4151;51.110;7.020;2023-05-03T06:34:15;6.83;;;3.90;;
8219;SDS011;4151;51.110;7.020;2023-05-03T06:36:44;10.80;;;4.53;;
8219;SDS011;4151;51.110;7.020;2023-05-03T06:39:09;11.73;;;4.20;;
8219;SDS011;4151;51.110;7.020;2023-05-03T06:41:35;6.50;;;4.13;;
8219;SDS011;4151;51.110;7.020;2023-05-03T06:44:00;7.47;;;4.33;;
8219;SDS011;4151;51.110;7.020;2023-05-03T06:46:28;8.70;;;4.70;;
8219;SDS011;4151;51.110;7.020;2023-05-03T06:48:53;6.60;;;4.43;;
8219;SDS011;4151;51.110;7.020;2023-05-03T06:51:22;11.13;;;4.47;;
8219;SDS011;4151;51.110;7.020;2023-05-03T06:53:52;9.27;;;4.30;;
8219;SDS011;4151;51.110;7.020;2023-05-03T06:56:20;10.87;;;4.30;;
8219;SDS011;4151;51.110;7.020;2023-05-03T06:58:46;8.30;;;3.93;;
8219;SDS011;4151;51.110;7.020;2023-05-03T07:01:11;13.53;;;4.40;;
8219;SDS011;4151;51.110;7.020;2023-05-03T07:03:37;6.40;;;3.63;;
8219;SDS011;4151;51.110;7.020;2023-05-03T07:06:02;11.47;;;3.40;;
8219;SDS011;4151;51.110;7.020;2023-05-03T07:08:28;7.87;;;3.83;;
8219;SDS011;4151;51.110;7.020;2023-05-03T07:10:54;10.90;;;3.63;;
8219;SDS011;4151;51.110;7.020;2023-05-03T07:13:20;7.23;;;3.87;;
8219;SDS011;4151;51.110;7.020;2023-05-03T07:15:45;5.60;;;3.47;;
8219;SDS011;4151;51.110;7.020;2023-05-03T07:18:11;5.40;;;3.40;;
8219;SDS011;4151;51.110;7.020;2023-05-03T07:20:36;10.70;;;3.90;;
8219;SDS011;4151;51.110;7.020;2023-05-03T07:23:02;15.50;;;4.80;;
8219;SDS011;4151;51.110;7.020;2023-05-03T07:25:28;12.70;;;4.00;;
8219;SDS011;4151;51.110;7.020;2023-05-03T07:27:54;11.13;;;4.03;;
8219;SDS011;4151;51.110;7.020;2023-05-03T07:30:19;4.93;;;3.50;;
8219;SDS011;4151;51.110;7.020;2023-05-03T07:32:46;8.33;;;3.30;;
8219;SDS011;4151;51.110;7.020;2023-05-03T07:35:11;6.30;;;3.30;;
8219;SDS011;4151;51.110;7.020;2023-05-03T07:37:37;11.97;;;4.13;;
8219;SDS011;4151;51.110;7.020;2023-05-03T07:40:04;4.40;;;3.20;;
8219;SDS011;4151;51.110;7.020;2023-05-03T07:42:31;5.30;;;3.70;;
8219;SDS011;4151;51.110;7.020;2023-05-03T07:44:56;12.00;;;3.87;;
8219;SDS011;4151;51.110;7.020;2023-05-03T07:47:24;10.20;;;3.67;;
8219;SDS011;4151;51.110;7.020;2023-05-03T07:49:50;10.50;;;3.60;;
8219;SDS011;4151;51.110;7.020;2023-05-03T07:52:16;7.73;;;3.60;;
8219;SDS011;4151;51.110;7.020;2023-05-03T07:54:42;6.50;;;3.67;;
8219;SDS011;4151;51.110;7.020;2023-05-03T07:57:09;8.50;;;3.20;;
8219;SDS011;4151;51.110;7.020;2023-05-03T07:59:35;9.87;;;3.70;;
8219;SDS011;4151;51.110;7.020;2023-05-03T08:02:02;7.40;;;3.63;;
8219;SDS011;4151;51.110;7.020;2023-05-03T08:04:28;12.43;;;3.60;;
8219;SDS011;4151;51.110;7.020;2023-05-03T08:06:53;11.80;;;3.40;;
8219;SDS011;4151;51.110;7.020;2023-05-03T08:09:19;8.00;;;3.80;;
8219;SDS011;4151;51.110;7.020;2023-05-03T08:11:45;5.67;;;2.80;;
8219;SDS011;4151;51.110;7.020;2023-05-03T08:14:11;4.57;;;2.60;;
8219;SDS011;4151;51.110;7.020;2023-05-03T08:16:36;11.27;;;3.60;;
8219;SDS011;4151;51.110;7.020;2023-05-03T08:19:03;12.90;;;3.30;;
8219;SDS011;4151;51.110;7.020;2023-05-03T08:21:29;6.97;;;3.27;;
8219;SDS011;4151;51.110;7.020;2023-05-03T08:23:55;9.30;;;4.17;;
8219;SDS011;4151;51.110;7.020;2023-05-03T08:26:20;6.10;;;3.40;;
8219;SDS011;4151;51.110;7.020;2023-05-03T08:28:46;9.00;;;4.47;;
8219;SDS011;4151;51.110;7.020;2023-05-03T08:31:11;5.57;;;3.73;;
8219;SDS011;4151;51.110;7.020;2023-05-03T08:33:38;7.60;;;3.43;;
8219;SDS011;4151;51.110;7.020;2023-05-03T08:36:03;15.53;;;3.70;;
8219;SDS011;4151;51.110;7.020;2023-05-03T08:38:29;4.90;;;3.40;;
8219;SDS011;4151;51.110;7.020;2023-05-03T08:40:57;9.20;;;3.27;;
8219;SDS011;4151;51.110;7.020;2023-05-03T08:43:26;9.03;;;3.80;;
8219;SDS011;4151;51.110;7.020;2023-05-03T08:45:52;10.67;;;4.20;;
8219;SDS011;4151;51.110;7.020;2023-05-03T08:48:18;7.50;;;4.47;;
8219;SDS011;4151;51.110;7.020;2023-05-03T08:50:44;6.27;;;3.17;;
8219;SDS011;4151;51.110;7.020;2023-05-03T08:53:10;8.77;;;3.80;;
8219;SDS011;4151;51.110;7.020;2023-05-03T08:55:36;5.73;;;3.43;;
8219;SDS011;4151;51.110;7.020;2023-05-03T08:58:02;7.90;;;3.20;;
8219;SDS011;4151;51.110;7.020;2023-05-03T09:00:34;5.77;;;3.30;;
8219;SDS011;4151;51.110;7.020;2023-05-03T09:03:00;10.83;;;3.43;;
8219;SDS011;4151;51.110;7.020;2023-05-03T09:08:03;6.00;;;2.97;;
8219;SDS011;4151;51.110;7.020;2023-05-03T09:10:35;5.60;;;2.70;;
8219;SDS011;4151;51.110;7.020;2023-05-03T09:13:03;7.70;;;3.37;;
8219;SDS011;4151;51.110;7.020;2023-05-03T09:15:28;5.07;;;3.37;;
8219;SDS011;4151;51.110;7.020;2023-05-03T09:18:11;5.47;;;3.23;;
8219;SDS011;4151;51.110;7.020;2023-05-03T09:20:44;5.03;;;3.50;;
8219;SDS011;4151;51.110;7.020;2023-05-03T09:23:16;6.00;;;3.50;;
8219;SDS011;4151;51.110;7.020;2023-05-03T09:25:52;5.83;;;3.10;;
8219;SDS011;4151;51.110;7.020;2023-05-03T09:28:18;14.90;;;3.57;;
8219;SDS011;4151;51.110;7.020;2023-05-03T09:30:45;9.13;;;3.77;;
8219;SDS011;4151;51.110;7.020;2023-05-03T09:33:12;10.83;;;4.00;;
8219;SDS011;4151;51.110;7.020;2023-05-03T09:35:57;5.13;;;3.20;;
8219;SDS011;4151;51.110;7.020;2023-05-03T09:38:24;8.43;;;3.90;;
8219;SDS011;4151;51.110;7.020;2023-05-03T09:40:54;8.23;;;3.60;;
8219;SDS011;4151;51.110;7.020;2023-05-03T09:43:20;8.23;;;4.10;;
8219;SDS011;4151;51.110;7.020;2023-05-03T09:45:46;5.30;;;3.40;;
8219;SDS011;4151;51.110;7.020;2023-05-03T09:48:12;8.80;;;3.50;;
8219;SDS011;4151;51.110;7.020;2023-05-03T09:50:38;8.23;;;3.57;;
8219;SDS011;4151;51.110;7.020;2023-05-03T09:53:05;4.60;;;3.03;;
8219;SDS011;4151;51.110;7.020;2023-05-03T09:55:32;4.67;;;3.40;;
8219;SDS011;4151;51.110;7.020;2023-05-03T09:57:59;7.40;;;3.70;;
8219;SDS011;4151;51.110;7.020;2023-05-03T10:00:28;7.17;;;3.60;;
8219;SDS011;4151;51.110;7.020;2023-05-03T10:02:54;9.87;;;3.27;;
8219;SDS011;4151;51.110;7.020;2023-05-03T10:05:22;6.20;;;3.50;;
8219;SDS011;4151;51.110;7.020;2023-05-03T10:07:50;5.30;;;3.23;;
8219;SDS011;4151;51.110;7.020;2023-05-03T10:10:18;12.10;;;3.90;;
8219;SDS011;4151;51.110;7.020;2023-05-03T10:12:45;8.00;;;3.60;;
8219;SDS011;4151;51.110;7.020;2023-05-03T10:15:12;6.20;;;2.90;;
8219;SDS011;4151;51.110;7.020;2023-05-03T10:17:39;5.70;;;3.00;;
8219;SDS011;4151;51.110;7.020;2023-05-03T10:23:30;10.30;;;5.37;;
8219;SDS011;4151;51.110;7.020;2023-05-03T10:25:38;5.90;;;3.50;;
8219;SDS011;4151;51.110;7.020;2023-05-03T10:28:05;9.20;;;3.93;;
8219;SDS011;4151;51.110;7.020;2023-05-03T10:30:33;16.63;;;4.63;;
8219;SDS011;4151;51.110;7.020;2023-05-03T10:35:38;7.87;;;3.87;;
8219;SDS011;4151;51.110;7.020;2023-05-03T10:38:24;7.97;;;3.07;;
8219;SDS011;4151;51.110;7.020;2023-05-03T10:40:51;4.60;;;3.17;;
8219;SDS011;4151;51.110;7.020;2023-05-03T10:45:55;7.93;;;3.40;;
8219;SDS011;4151;51.110;7.020;2023-05-03T10:48:21;5.47;;;2.80;;
8219;SDS011;4151;51.110;7.020;2023-05-03T10:50:47;7.47;;;3.50;;
8219;SDS011;4151;51.110;7.020;2023-05-03T10:56:10;4.50;;;2.67;;
8219;SDS011;4151;51.110;7.020;2023-05-03T11:01:08;8.20;;;3.50;;
8219;SDS011;4151;51.110;7.020;2023-05-03T11:09:01;9.70;;;3.00;;
8219;SDS011;4151;51.110;7.020;2023-05-03T11:11:28;10.50;;;2.67;;
8219;SDS011;4151;51.110;7.020;2023-05-03T11:13:55;4.17;;;2.67;;
8219;SDS011;4151;51.110;7.020;2023-05-03T11:16:21;5.83;;;2.63;;
8219;SDS011;4151;51.110;7.020;2023-05-03T11:18:47;7.37;;;3.30;;
8219;SDS011;4151;51.110;7.020;2023-05-03T11:21:13;7.03;;;2.77;;
8219;SDS011;4151;51.110;7.020;2023-05-03T11:23:40;7.63;;;3.20;;
8219;SDS011;4151;51.110;7.020;2023-05-03T11:26:06;5.90;;;2.87;;
8219;SDS011;4151;51.110;7.020;2023-05-03T11:28:39;4.63;;;3.00;;
8219;SDS011;4151;51.110;7.020;2023-05-03T11:31:06;5.13;;;3.07;;
8219;SDS011;4151;51.110;7.020;2023-05-03T11:33:32;8.60;;;6.53;;
8219;SDS011;4151;51.110;7.020;2023-05-03T11:36:01;4.77;;;2.70;;
8219;SDS011;4151;51.110;7.020;2023-05-03T11:38:29;2.93;;;2.00;;
8219;SDS011;4151;51.110;7.020;2023-05-03T11:40:56;3.27;;;2.30;;
8219;SDS011;4151;51.110;7.020;2023-05-03T11:43:22;5.53;;;3.00;;
8219;SDS011;4151;51.110;7.020;2023-05-03T11:45:49;3.83;;;2.40;;
8219;SDS011;4151;51.110;7.020;2023-05-03T11:48:16;6.60;;;3.23;;
8219;SDS011;4151;51.110;7.020;2023-05-03T11:50:48;5.00;;;2.80;;
8219;SDS011;4151;51.110;7.020;2023-05-03T11:53:17;5.60;;;3.20;;
8219;SDS011;4151;51.110;7.020;2023-05-03T11:55:47;4.57;;;2.80;;
8219;SDS011;4151;51.110;7.020;2023-05-03T11:58:14;9.93;;;2.93;;
8219;SDS011;4151;51.110;7.020;2023-05-03T12:00:51;5.70;;;2.87;;
8219;SDS011;4151;51.110;7.020;2023-05-03T12:03:24;4.13;;;2.57;;
8219;SDS011;4151;51.110;7.020;2023-05-03T12:05:51;6.90;;;2.60;;
8219;SDS011;4151;51.110;7.020;2023-05-03T12:08:17;4.30;;;2.70;;
8219;SDS011;4151;51.110;7.020;2023-05-03T12:10:45;4.87;;;2.70;;
8219;SDS011;4151;51.110;7.020;2023-05-03T12:13:11;4.83;;;2.70;;
8219;SDS011;4151;51.110;7.020;2023-05-03T12:15:37;4.20;;;2.53;;
8219;SDS011;4151;51.110;7.020;2023-05-03T12:18:05;4.87;;;2.60;;
8219;SDS011;4151;51.110;7.020;2023-05-03T12:20:37;8.33;;;2.70;;
8219;SDS011;4151;51.110;7.020;2023-05-03T12:23:05;4.63;;;2.80;;
8219;SDS011;4151;51.110;7.020;2023-05-03T12:25:32;7.07;;;2.30;;
8219;SDS011;4151;51.110;7.020;2023-05-03T12:28:00;2.83;;;2.10;;
8219;SDS011;4151;51.110;7.020;2023-05-03T12:30:27;3.73;;;2.33;;
8219;SDS011;4151;51.110;7.020;2023-05-03T12:32:53;7.50;;;2.27;;
8219;SDS011;4151;51.110;7.020;2023-05-03T12:35:19;3.90;;;2.47;;
8219;SDS011;4151;51.110;7.020;2023-05-03T12:37:46;5.00;;;2.60;;
8219;SDS011;4151;51.110;7.020;2023-05-03T12:40:13;3.87;;;2.50;;
8219;SDS011;4151;51.110;7.020;2023-05-03T12:42:39;4.57;;;2.70;;
8219;SDS011;4151;51.110;7.020;2023-05-03T12:45:05;5.47;;;2.60;;
8219;SDS011;4151;51.110;7.020;2023-05-03T12:47:31;6.13;;;2.80;;
8219;SDS011;4151;51.110;7.020;2023-05-03T12:49:57;3.40;;;1.90;;
8219;SDS011;4151;51.110;7.020;2023-05-03T12:52:23;4.23;;;2.47;;
8219;SDS011;4151;51.110;7.020;2023-05-03T12:54:49;5.70;;;1.83;;
8219;SDS011;4151;51.110;7.020;2023-05-03T12:57:16;4.80;;;2.00;;
8219;SDS011;4151;51.110;7.020;2023-05-03T12:59:41;4.03;;;2.57;;
8219;SDS011;4151;51.110;7.020;2023-05-03T13:02:10;4.33;;;2.43;;
8219;SDS011;4151;51.110;7.020;2023-05-03T13:04:37;4.00;;;1.90;;
8219;SDS011;4151;51.110;7.020;2023-05-03T13:07:03;9.10;;;2.20;;
8219;SDS011;4151;51.110;7.020;2023-05-03T13:09:29;4.90;;;2.50;;
8219;SDS011;4151;51.110;7.020;2023-05-03T13:11:55;3.97;;;2.23;;
8219;SDS011;4151;51.110;7.020;2023-05-03T13:14:21;2.13;;;1.80;;
8219;SDS011;4151;51.110;7.020;2023-05-03T13:16:47;4.80;;;2.50;;
8219;SDS011;4151;51.110;7.020;2023-05-03T13:19:13;3.83;;;2.47;;
8219;SDS011;4151;51.110;7.020;2023-05-03T13:21:40;2.83;;;2.20;;
8219;SDS011;4151;51.110;7.020;2023-05-03T13:24:06;6.77;;;2.43;;
8219;SDS011;4151;51.110;7.020;2023-05-03T13:26:32;4.00;;;2.13;;
8219;SDS011;4151;51.110;7.020;2023-05-03T13:29:00;3.53;;;1.90;;
8219;SDS011;4151;51.110;7.020;2023-05-03T13:31:26;5.13;;;2.17;;
8219;SDS011;4151;51.110;7.020;2023-05-03T13:33:54;3.10;;;2.10;;
8219;SDS011;4151;51.110;7.020;2023-05-03T13:36:20;4.80;;;1.93;;
8219;SDS011;4151;51.110;7.020;2023-05-03T13:38:47;2.30;;;1.83;;
8219;SDS011;4151;51.110;7.020;2023-05-03T13:41:13;2.63;;;2.00;;
8219;SDS011;4151;51.110;7.020;2023-05-03T13:43:40;3.97;;;2.10;;
8219;SDS011;4151;51.110;7.020;2023-05-03T13:46:06;3.33;;;2.20;;
8219;SDS011;4151;51.110;7.020;2023-05-03T13:48:32;3.30;;;1.80;;
8219;SDS011;4151;51.110;7.020;2023-05-03T13:50:58;4.50;;;1.70;;
8219;SDS011;4151;51.110;7.020;2023-05-03T13:53:24;3.70;;;2.13;;
8219;SDS011;4151;51.110;7.020;2023-05-03T13:55:50;8.13;;;2.30;;
8219;SDS011;4151;51.110;7.020;2023-05-03T13:58:16;4.03;;;2.03;;
8219;SDS011;4151;51.110;7.020;2023-05-03T14:00:43;2.80;;;1.70;;
8219;SDS011;4151;51.110;7.020;2023-05-03T14:03:09;2.07;;;1.57;;
8219;SDS011;4151;51.110;7.020;2023-05-03T14:05:35;2.20;;;1.77;;
8219;SDS011;4151;51.110;7.020;2023-05-03T14:08:01;2.37;;;1.50;;
8219;SDS011;4151;51.110;7.020;2023-05-03T14:10:26;2.67;;;1.80;;
8219;SDS011;4151;51.110;7.020;2023-05-03T14:12:52;4.60;;;1.90;;
8219;SDS011;4151;51.110;7.020;2023-05-03T14:15:17;4.40;;;2.10;;
8219;SDS011;4151;51.110;7.020;2023-05-03T14:17:46;2.27;;;1.50;;
8219;SDS011;4151;51.110;7.020;2023-05-03T14:20:11;1.93;;;1.53;;
8219;SDS011;4151;51.110;7.020;2023-05-03T14:22:37;3.43;;;1.53;;
8219;SDS011;4151;51.110;7.020;2023-05-03T14:25:03;3.83;;;1.50;;
8219;SDS011;4151;51.110;7.020;2023-05-03T14:27:28;3.60;;;1.70;;
8219;SDS011;4151;51.110;7.020;2023-05-03T14:29:54;2.50;;;1.50;;
8219;SDS011;4151;51.110;7.020;2023-05-03T14:32:21;4.70;;;1.70;;
8219;SDS011;4151;51.110;7.020;2023-05-03T14:34:48;4.60;;;1.70;;
8219;SDS011;4151;51.110;7.020;2023-05-03T14:37:13;5.37;;;2.00;;
8219;SDS011;4151;51.110;7.020;2023-05-03T14:39:39;4.07;;;1.77;;
8219;SDS011;4151;51.110;7.020;2023-05-03T14:42:05;4.33;;;1.60;;
8219;SDS011;4151;51.110;7.020;2023-05-03T14:44:30;2.28;;;1.55;;
8219;SDS011;4151;51.110;7.020;2023-05-03T14:46:56;4.32;;;1.40;;
8219;SDS011;4151;51.110;7.020;2023-05-03T14:49:24;5.03;;;1.92;;
8219;SDS011;4151;51.110;7.020;2023-05-03T14:51:50;1.40;;;1.10;;
8219;SDS011;4151;51.110;7.020;2023-05-03T14:54:16;3.80;;;1.67;;
8219;SDS011;4151;51.110;7.020;2023-05-03T14:56:43;1.98;;;1.65;;
8219;SDS011;4151;51.110;7.020;2023-05-03T14:59:09;3.58;;;2.08;;
8219;SDS011;4151;51.110;7.020;2023-05-03T15:01:35;4.28;;;2.30;;
8219;SDS011;4151;51.110;7.020;2023-05-03T15:04:01;2.78;;;2.28;;
8219;SDS011;4151;51.110;7.020;2023-05-03T15:06:28;4.93;;;1.98;;
8219;SDS011;4151;51.110;7.020;2023-05-03T15:08:56;5.32;;;2.42;;
8219;SDS011;4151;51.110;7.020;2023-05-03T15:11:23;3.87;;;1.87;;
8219;SDS011;4151;51.110;7.020;2023-05-03T15:13:49;3.30;;;2.08;;
8219;SDS011;4151;51.110;7.020;2023-05-03T15:16:15;2.33;;;1.80;;
8219;SDS011;4151;51.110;7.020;2023-05-03T15:18:42;3.10;;;1.60;;
8219;SDS011;4151;51.110;7.020;2023-05-03T15:21:12;2.50;;;1.73;;
8219;SDS011;4151;51.110;7.020;2023-05-03T15:23:38;2.88;;;1.98;;
8219;SDS011;4151;51.110;7.020;2023-05-03T15:26:05;4.85;;;2.20;;
8219;SDS011;4151;51.110;7.020;2023-05-03T15:28:31;3.08;;;2.60;;
8219;SDS011;4151;51.110;7.020;2023-05-03T15:30:57;2.55;;;2.35;;
8219;SDS011;4151;51.110;7.020;2023-05-03T15:33:22;3.45;;;2.42;;
8219;SDS011;4151;51.110;7.020;2023-05-03T15:35:48;5.47;;;2.67;;
8219;SDS011;4151;51.110;7.020;2023-05-03T15:38:13;3.73;;;2.23;;
8219;SDS011;4151;51.110;7.020;2023-05-03T15:40:39;2.90;;;1.93;;
8219;SDS011;4151;51.110;7.020;2023-05-03T15:43:05;3.40;;;2.23;;